ZBAAZMUB

Guest
Details From ZBAA - CAPITAL INTL
To ZMUB - CHINGGIS KHAAN INTL
Flight Number -
Tags decoded
Created
Modified
Stats Distance 643 nm / 1,191 km
Max Altitude 0 ft / 0 m
Waypoints 4
Social Downloads 0
Likes 0
Share VATSIM

Download

Looking for another format? Having issues loading an existing format? Contact us
Advertisement - Login to hide

Notes

Requested: ZBAA YV B334 PIDOX B339 ARGAT ZMUB Unmatched points: B334 PIDOX B339

Route

ZBAA YV ARGAT ZMUB

ID Type Via Altitude Latitude Longitude Leg Dist Tot Dist Heading (true) Name
O ZBAA APT - 0 ft / 0 m 40.08012˚ 116.58456˚ - 0 nm - CAPITAL INTL
YV NDB - 0 ft / 0 m 40.73333˚ 116.63333˚ 39 nm 39 nm 3° / 3° TANGHEKOU NDB
ARGAT FIX - 0 ft / 0 m 46.60889˚ 109.57972˚ 466 nm 506 nm 321° / 317° -
O ZMUB APT - 0 ft / 0 m 47.84262˚ 106.76291˚ 136 nm 642 nm 304° / 302° CHINGGIS KHAAN INTL

Altitude Profile

Advertisement - Login to hide

Weather


0- 5 10 15 20 25 30 35+ Temperature / ° C

Clouds and Precipitation
Forecast for 2017-12-18 18:00 UTC. Updated 2 hours ago

Ground ~20,000 ft ~40,000 ft Winds

ZBAA

Details ICAO ZBAA (PEK)
Name CAPITAL INTL
Region China
Timezone Asia/Shanghai (UTC+8.0)
Stats Elevation 116 ft / 35 m (AMSL)
Location 40.080118° 116.584563°
Runways 2
Magnetic Variation 6.954° W

METAR

ZBAA 181700Z 03002MPS CAVOK M03/M16 Q1037 NOSIG

Decode

TAF

Not found

Departure Runways

ID Width Length Bearing (true) Bearing (mag) Surface Threshold Offset Overrun Length
18L 197 ft / 60 m 12,436 ft / 3,790 m 173.12° 180.07° Asphalt 0 ft / 0 m 197 ft / 60 m
18R 164 ft / 50 m 10,506 ft / 3,202 m 174.11° 181.06° Asphalt 0 ft / 0 m 197 ft / 60 m
36L 164 ft / 50 m 10,506 ft / 3,202 m 354.11° 1.06° Asphalt 0 ft / 0 m 197 ft / 60 m
36R 197 ft / 60 m 12,436 ft / 3,790 m 353.12° 0.07° Asphalt 0 ft / 0 m 197 ft / 60 m

ZMUB

Details ICAO ZMUB (ULN)
Name CHINGGIS KHAAN INTL
Region Mongolia
Timezone Asia/Ulaanbaatar (UTC+8.0)
Stats Elevation 4,364 ft / 1,330 m (AMSL)
Location 47.842620° 106.762906°
Runways 2
Magnetic Variation 4.602° W

METAR

ZMUB 181700Z 00000MPS 9999 BKN100 M20/M22 Q1027 NOSIG RMK QFE661.9 80 NT

Decode

TAF

Not found

Destination Runways

ID Width Length Bearing (true) Bearing (mag) Surface Threshold Offset Overrun Length
14 197 ft / 60 m 10,158 ft / 3,096 m 138.21° 142.81° Asphalt 0 ft / 0 m 148 ft / 45 m
15 131 ft / 40 m 6,239 ft / 1,902 m 146.60° 151.20° Dirt 0 ft / 0 m 492 ft / 150 m
32 197 ft / 60 m 10,158 ft / 3,096 m 318.23° 322.83° Asphalt 0 ft / 0 m 0 ft / 0 m
33 131 ft / 40 m 6,239 ft / 1,902 m 326.61° 331.21° Dirt 0 ft / 0 m 0 ft / 0 m

Approach Navaids

Runway Type Ident Frequency Range Bearing (true) Bearing (mag) Slope Elevation
14 Localiser IDA 110.30 MHz 50 nm / 93 km 138.45° 143.05° - 4,364 ft / 1,330 m (AMSL)
14 Glidescope IDA 110.30 MHz 50 nm / 93 km 142.00° 146.60° 2.70° 4,147 ft / 1,264 m (AMSL)

Popular Alternatives